Time;durP1;ratioP1;P1;durP2;ratioP2;P2;SDS_P1;SDS_P2;PMS_P1;PMS_P2;Temp;Humidity;BMP_temperature;BMP_pressure;BME280_temperature;BME280_humidity;BME280_pressure;Samples;Min_cycle;Max_cycle;Signal;HPM_P1;HPM_P2
2021/04/20 00:00:16;;;;;;;15.98;12.45;;;;;;;6.93;84.59;95752.81;6347671;22;20002;-91
2021/04/20 00:02:41;;;;;;;17.50;11.85;;;;;;;7.21;85.05;95808.34;6347831;22;19998;-91
2021/04/20 00:05:11;;;;;;;16.13;12.65;;;;;;;6.83;85.79;95743.94;6347717;22;20013;-92
2021/04/20 00:07:37;;;;;;;15.90;11.80;;;;;;;6.83;84.21;95754.72;6349131;22;20005;-91
2021/04/20 00:10:10;;;;;;;16.02;11.48;;;;;;;7.03;84.23;95776.69;6347785;22;19999;-91
2021/04/20 00:12:36;;;;;;;17.58;13.20;;;;;;;7.18;84.90;95797.69;6347744;22;20010;-89
2021/04/20 00:15:11;;;;;;;18.23;12.93;;;;;;;7.13;83.22;95799.03;6376419;22;20003;-89
2021/04/20 00:17:37;;;;;;;15.77;12.82;;;;;;;6.31;83.87;95675.44;6349713;22;20006;-89
2021/04/20 00:20:08;;;;;;;17.35;13.30;;;;;;;7.12;83.80;95791.38;6349446;22;20013;-89
2021/04/20 00:22:34;;;;;;;16.63;12.98;;;;;;;7.13;84.48;95800.97;6377525;22;20263;-89
2021/04/20 00:24:59;;;;;;;19.60;13.88;;;;;;;6.93;84.36;95769.00;6349429;22;20073;-89
2021/04/20 00:27:25;;;;;;;17.38;14.27;;;;;;;6.73;84.17;95745.84;6377128;22;20002;-90
2021/04/20 00:29:50;;;;;;;17.17;13.73;;;;;;;6.77;85.17;95759.22;6377028;22;20055;-90
2021/04/20 00:32:16;;;;;;;17.98;13.77;;;;;;;6.88;84.92;95772.28;6349212;22;20003;-89
2021/04/20 00:34:41;;;;;;;17.65;13.45;;;;;;;6.84;84.80;95756.22;6349251;22;20006;-90
2021/04/20 00:37:07;;;;;;;19.40;13.70;;;;;;;6.94;84.74;95773.94;6349438;22;20013;-89
2021/04/20 00:39:32;;;;;;;16.15;13.30;;;;;;;6.74;85.27;95752.00;6349366;22;20003;-89
2021/04/20 00:42:08;;;;;;;16.15;13.25;;;;;;;6.86;85.51;95772.72;6349067;22;19994;-89
2021/04/20 00:44:35;;;;;;;16.30;13.18;;;;;;;7.01;85.30;95795.25;6349208;22;20042;-89
2021/04/20 00:47:02;;;;;;;18.38;14.10;;;;;;;6.98;84.85;95801.56;6349177;22;20089;-90
2021/04/20 00:49:28;;;;;;;16.92;13.98;;;;;;;6.63;84.51;95741.63;6349271;22;20089;-89
2021/04/20 00:51:54;;;;;;;16.90;13.50;;;;;;;6.77;85.49;95768.06;6348966;22;20062;-89
2021/04/20 00:54:20;;;;;;;18.23;14.60;;;;;;;6.64;84.87;95745.06;6348841;22;20018;-90
2021/04/20 00:56:46;;;;;;;17.88;14.60;;;;;;;6.89;84.53;95784.59;6348717;22;20240;-89
2021/04/20 00:59:12;;;;;;;18.42;15.18;;;;;;;6.72;84.83;95752.47;6348866;22;20005;-90
2021/04/20 01:01:38;;;;;;;18.08;15.25;;;;;;;7.04;84.96;95793.63;6348866;22;20267;-90
2021/04/20 01:04:04;;;;;;;19.27;15.25;;;;;;;6.91;84.72;95774.09;6348980;22;20007;-90
2021/04/20 01:06:31;;;;;;;18.50;15.13;;;;;;;6.49;85.63;95713.25;6348833;22;20367;-90
2021/04/20 01:08:57;;;;;;;18.58;15.57;;;;;;;6.68;86.34;95738.34;6376447;22;19998;-91
2021/04/20 01:11:24;;;;;;;21.83;15.38;;;;;;;6.88;86.39;95773.03;6348857;22;20006;-91
2021/04/20 01:13:49;;;;;;;21.48;15.25;;;;;;;6.75;85.58;95759.66;6348889;22;20002;-92
2021/04/20 01:16:18;;;;;;;19.25;15.32;;;;;;;6.68;85.17;95746.44;6348645;22;20385;-91
2021/04/20 01:18:44;;;;;;;21.85;16.95;;;;;;;6.96;85.14;95795.09;6348921;22;20002;-91
2021/04/20 01:21:15;;;;;;;19.63;15.80;;;;;;;6.59;84.48;95724.81;6348670;22;20006;-91
2021/04/20 01:24:00;;;;;;;19.48;15.88;;;;;;;6.99;85.14;95788.81;6348737;22;20006;-92
2021/04/20 01:26:34;;;;;;;23.27;17.52;;;;;;;6.99;86.19;95786.13;6348384;22;20002;-91
2021/04/20 01:29:00;;;;;;;20.35;15.52;;;;;;;6.74;84.89;95763.53;6348830;22;20010;-91
2021/04/20 01:31:27;;;;;;;25.65;17.42;;;;;;;6.94;85.02;95786.69;6348386;22;20367;-91
2021/04/20 01:33:54;;;;;;;20.58;17.02;;;;;;;6.91;84.81;95785.63;6350378;22;20071;-91
2021/04/20 01:36:22;;;;;;;21.25;16.08;;;;;;;6.89;83.97;95779.94;6348600;22;20007;-90
2021/04/20 01:38:49;;;;;;;21.80;15.70;;;;;;;6.88;84.33;95777.69;6348842;22;20009;-91
2021/04/20 01:41:16;;;;;;;20.73;16.00;;;;;;;6.29;84.83;95694.03;6348820;22;20037;-91
2021/04/20 01:43:43;;;;;;;22.45;15.50;;;;;;;6.82;84.76;95780.22;6353023;22;20002;-90
2021/04/20 01:46:10;;;;;;;19.85;15.90;;;;;;;6.81;85.28;95782.16;6354522;22;20002;-90
2021/04/20 01:48:36;;;;;;;18.90;14.27;;;;;;;6.69;85.70;95768.78;6352752;22;20003;-90
2021/04/20 01:51:03;;;;;;;21.15;14.90;;;;;;;6.78;85.46;95785.00;6348379;22;20002;-91
2021/04/20 01:53:28;;;;;;;20.85;15.32;;;;;;;6.54;85.59;95741.59;6375709;22;20002;-91
2021/04/20 01:56:04;;;;;;;21.48;15.57;;;;;;;6.45;85.64;95746.97;6348562;22;20375;-91
2021/04/20 01:58:31;;;;;;;23.08;15.32;;;;;;;6.57;84.36;95748.81;6348908;22;20003;-91
2021/04/20 02:00:58;;;;;;;21.23;15.07;;;;;;;6.75;85.92;95794.75;6348374;22;20002;-91
2021/04/20 02:03:28;;;;;;;22.48;15.10;;;;;;;6.44;84.93;95737.38;6348533;22;20006;-91
2021/04/20 02:05:54;;;;;;;20.02;15.63;;;;;;;6.17;85.87;95701.00;6348418;22;20036;-90
2021/04/20 02:08:20;;;;;;;20.33;15.57;;;;;;;6.30;85.40;95723.25;6348201;22;19998;-91
2021/04/20 02:10:47;;;;;;;28.95;16.27;;;;;;;6.74;86.37;95785.13;6348431;22;20002;-92
2021/04/20 02:13:12;;;;;;;28.70;16.23;;;;;;;6.66;85.83;95758.88;6348183;22;20274;-90
2021/04/20 02:15:38;;;;;;;21.20;15.57;;;;;;;6.45;84.73;95734.25;6348268;22;20009;-90
2021/04/20 02:18:08;;;;;;;19.73;15.52;;;;;;;6.34;84.27;95719.66;6348419;22;20059;-90
2021/04/20 02:20:37;;;;;;;18.17;15.55;;;;;;;6.27;85.26;95716.03;6348161;22;20002;-90
2021/04/20 02:23:03;;;;;;;19.75;14.90;;;;;;;6.68;84.96;95776.13;6376585;22;19998;-90
2021/04/20 02:25:29;;;;;;;19.90;16.42;;;;;;;6.44;85.85;95746.22;6375879;22;20290;-88
2021/04/20 02:27:54;;;;;;;19.48;15.77;;;;;;;6.74;85.06;95779.00;6348322;22;20006;-89
2021/04/20 02:30:20;;;;;;;20.38;16.55;;;;;;;6.47;85.02;95728.41;6375579;22;20045;-90
2021/04/20 02:32:46;;;;;;;25.30;16.92;;;;;;;6.45;85.23;95734.25;6348389;22;20014;-89
2021/04/20 02:35:14;;;;;;;23.35;17.17;;;;;;;6.66;85.34;95772.38;6348319;22;20002;-90
2021/04/20 02:37:41;;;;;;;22.05;16.70;;;;;;;6.60;85.38;95766.03;6375299;22;20262;-90
2021/04/20 02:40:10;;;;;;;23.30;16.65;;;;;;;6.60;85.44;95768.75;6347629;22;20002;-89
2021/04/20 02:43:12;;;;;;;21.80;16.30;;;;;;;6.63;86.11;95770.56;6375468;22;20002;-89
2021/04/20 02:45:38;;;;;;;21.83;15.73;;;;;;;6.45;84.87;95744.28;6376312;22;20046;-89
2021/04/20 02:48:04;;;;;;;23.20;16.45;;;;;;;6.40;86.13;95734.81;6348602;22;20401;-90
2021/04/20 02:50:31;;;;;;;24.30;16.00;;;;;;;6.40;84.92;95731.38;6348305;22;20010;-89
2021/04/20 02:52:57;;;;;;;91.75;19.10;;;;;;;6.67;85.87;95771.94;6347930;22;20275;-90
2021/04/20 02:55:23;;;;;;;20.42;15.50;;;;;;;6.57;85.11;95748.81;6347915;22;20010;-90
2021/04/20 02:57:54;;;;;;;20.25;15.30;;;;;;;6.84;84.52;95767.03;6348743;22;20059;-90
2021/04/20 03:00:23;;;;;;;;;;;;;;;6.82;84.17;95775.56;6348544;22;20407;-90
2021/04/20 03:03:00;;;;;;;19.67;15.05;;;;;;;6.74;84.00;95777.03;6348136;22;19947;-90
2021/04/20 03:05:27;;;;;;;21.30;15.77;;;;;;;6.67;84.25;95769.25;6379140;22;20027;-91
2021/04/20 03:07:53;;;;;;;22.33;15.43;;;;;;;6.59;83.43;95748.34;6351703;22;19998;-91
2021/04/20 03:10:19;;;;;;;19.63;15.35;;;;;;;6.47;83.60;95739.94;6375380;22;20020;-91
2021/04/20 03:12:45;;;;;;;18.20;15.68;;;;;;;6.55;84.13;95754.66;6348428;22;20002;-91
2021/04/20 03:15:14;;;;;;;21.77;15.98;;;;;;;6.59;84.92;95762.59;6347963;22;20002;-90
2021/04/20 03:17:40;;;;;;;19.10;16.25;;;;;;;6.14;84.54;95710.00;6375207;22;20355;-90
2021/04/20 03:20:08;;;;;;;22.05;16.30;;;;;;;6.52;84.97;95762.88;6347886;22;20362;-90
2021/04/20 03:22:35;;;;;;;20.55;15.65;;;;;;;6.04;84.42;95703.06;6347646;22;20009;-90
2021/04/20 03:25:07;;;;;;;19.42;15.32;;;;;;;6.34;84.41;95762.81;6347966;22;20002;-90
2021/04/20 03:27:37;;;;;;;20.25;15.15;;;;;;;5.83;84.37;95699.19;6347813;22;20009;-90
2021/04/20 03:30:04;;;;;;;20.55;15.98;;;;;;;6.08;84.53;95736.03;6348397;22;19998;-90
2021/04/20 03:32:53;;;;;;;20.95;15.45;;;;;;;5.96;84.07;95740.31;6347588;22;19999;-90
2021/04/20 03:35:23;;;;;;;20.42;15.60;;;;;;;5.94;84.19;95741.94;6347917;22;20007;-90
2021/04/20 03:38:02;;;;;;;21.38;16.33;;;;;;;6.07;85.25;95769.56;6375297;22;20002;-90
2021/04/20 03:40:29;;;;;;;20.42;15.63;;;;;;;5.72;84.58;95736.56;6347715;22;20010;-90
2021/04/20 03:42:58;;;;;;;20.23;15.68;;;;;;;5.93;85.22;95765.47;6347991;22;20002;-91
2021/04/20 03:45:29;;;;;;;21.95;16.55;;;;;;;5.76;85.30;95748.72;6347517;22;20338;-90
2021/04/20 03:47:59;;;;;;;23.00;17.50;;;;;;;5.78;85.37;95762.50;6347911;22;20002;-90
2021/04/20 03:50:29;;;;;;;23.58;17.75;;;;;;;5.66;85.50;95768.72;6348646;22;20002;-90
2021/04/20 03:53:03;;;;;;;22.37;18.13;;;;;;;5.08;85.07;95685.69;6349510;22;20007;-89
2021/04/20 03:55:30;;;;;;;19.65;15.90;;;;;;;5.57;84.80;95749.03;6349184;22;20022;-90
2021/04/20 03:57:58;;;;;;;19.85;15.95;;;;;;;5.25;84.07;95718.59;6348619;22;20363;-91
2021/04/20 04:00:25;;;;;;;21.45;16.35;;;;;;;5.47;84.50;95750.91;6349843;22;20003;-91
2021/04/20 04:02:53;;;;;;;22.65;15.95;;;;;;;5.52;85.00;95767.25;6349375;22;20378;-89
2021/04/20 04:05:27;;;;;;;20.35;15.60;;;;;;;5.15;83.46;95706.97;6377117;22;20006;-89
2021/04/20 04:07:55;;;;;;;19.40;15.75;;;;;;;4.85;84.24;95689.56;6349511;22;20006;-90
2021/04/20 04:10:22;;;;;;;21.58;16.02;;;;;;;5.03;84.43;95715.13;6349298;22;20002;-89
2021/04/20 04:12:59;;;;;;;21.98;17.10;;;;;;;4.92;83.62;95702.03;6349194;22;20279;-89
2021/04/20 04:15:26;;;;;;;22.58;16.65;;;;;;;4.93;84.47;95706.22;6349470;22;20301;-89
2021/04/20 04:17:55;;;;;;;22.58;17.15;;;;;;;5.23;84.62;95754.03;6349424;22;20359;-90
2021/04/20 04:20:21;;;;;;;23.95;17.77;;;;;;;5.19;83.88;95731.84;6349244;22;20002;-90
2021/04/20 04:22:57;;;;;;;24.20;17.08;;;;;;;5.07;83.64;95743.44;6349120;22;20001;-90
2021/04/20 04:25:29;;;;;;;24.25;17.55;;;;;;;5.48;83.95;95787.44;6349695;22;20381;-91
2021/04/20 04:27:57;;;;;;;25.00;17.00;;;;;;;5.10;82.86;95725.63;6349162;22;20018;-91
2021/04/20 04:30:24;;;;;;;25.90;16.92;;;;;;;5.07;82.93;95713.81;6349277;22;20006;-90
2021/04/20 04:32:53;;;;;;;24.88;18.13;;;;;;;4.90;82.50;95699.78;6349106;22;20363;-90
2021/04/20 04:35:20;;;;;;;23.77;17.73;;;;;;;5.17;82.30;95763.09;6349187;22;20367;-90
2021/04/20 04:37:46;;;;;;;23.42;16.73;;;;;;;5.04;82.43;95744.28;6349268;22;20005;-89
2021/04/20 04:40:12;;;;;;;24.23;18.67;;;;;;;4.57;82.95;95666.28;6348897;22;20325;-88
2021/04/20 04:42:38;;;;;;;27.35;18.80;;;;;;;5.08;83.38;95758.38;6349108;22;20060;-88
2021/04/20 04:45:08;;;;;;;26.27;19.42;;;;;;;5.29;84.29;95785.78;6376677;22;20293;-89
2021/04/20 04:47:34;;;;;;;26.08;20.02;;;;;;;5.18;83.46;95773.44;6328066;22;20007;-90
2021/04/20 04:50:04;;;;;;;30.08;21.83;;;;;;;5.09;84.23;95749.13;6350302;22;20006;-90
2021/04/20 04:52:30;;;;;;;31.38;21.88;;;;;;;5.40;83.58;95784.22;6376605;22;19999;-89
2021/04/20 04:54:57;;;;;;;30.00;22.92;;;;;;;4.99;83.97;95723.31;6348357;22;20071;-91
2021/04/20 04:57:25;;;;;;;31.25;22.85;;;;;;;5.29;83.95;95789.22;6348957;22;20077;-91
2021/04/20 04:59:53;;;;;;;31.90;21.90;;;;;;;5.33;82.90;95797.19;6348857;22;20008;-91
2021/04/20 05:02:19;;;;;;;30.88;23.05;;;;;;;5.03;84.22;95756.25;6376051;22;20069;-90
2021/04/20 05:04:44;;;;;;;28.50;21.98;;;;;;;5.37;83.34;95768.94;6348255;22;20009;-92
2021/04/20 05:07:10;;;;;;;26.05;19.48;;;;;;;5.65;82.74;95801.50;6352105;22;20248;-87
2021/04/20 05:09:35;;;;;;;25.08;19.27;;;;;;;5.47;82.98;95767.06;6350903;22;20002;-90
2021/04/20 05:15:23;;;;;;;26.10;18.75;;;;;;;5.39;83.71;95752.34;6376547;22;20013;-88
2021/04/20 05:17:50;;;;;;;26.13;18.27;;;;;;;5.75;82.53;95806.50;6348742;22;20002;-89
2021/04/20 05:20:22;;;;;;;25.02;18.45;;;;;;;5.61;83.17;95780.06;6347896;22;20048;-88
2021/04/20 05:23:28;;;;;;;29.58;19.90;;;;;;;5.79;83.91;95807.13;6373892;22;20258;-89
2021/04/20 05:25:54;;;;;;;25.55;19.38;;;;;;;5.77;83.21;95809.50;6376290;22;19998;-89
2021/04/20 05:28:21;;;;;;;26.45;19.35;;;;;;;5.85;83.84;95801.91;6346832;22;20006;-89
2021/04/20 05:30:47;;;;;;;26.83;20.88;;;;;;;5.92;83.27;95807.09;6345792;22;20044;-90
2021/04/20 05:33:14;;;;;;;29.45;21.52;;;;;;;5.96;82.93;95817.72;6347565;22;20002;-90
2021/04/20 05:35:43;;;;;;;29.17;21.95;;;;;;;5.68;82.85;95770.97;6348107;22;20006;-89
2021/04/20 05:38:09;;;;;;;35.20;22.65;;;;;;;5.48;83.21;95745.06;6348508;22;20411;-88
2021/04/20 05:40:40;;;;;;;32.33;22.70;;;;;;;5.41;82.66;95741.88;6348392;22;20040;-89
2021/04/20 05:43:06;;;;;;;32.15;21.98;;;;;;;5.81;82.90;95787.09;6348431;22;20025;-90
2021/04/20 05:45:32;;;;;;;28.35;21.13;;;;;;;5.62;82.94;95760.00;6348466;22;20006;-89
2021/04/20 05:47:59;;;;;;;30.02;22.35;;;;;;;6.09;82.34;95814.97;6347779;22;20132;-90
2021/04/20 05:50:31;;;;;;;29.73;21.45;;;;;;;5.94;82.96;95793.16;6348250;22;20003;-90
2021/04/20 05:52:58;;;;;;;33.85;22.17;;;;;;;6.22;82.58;95823.75;6347984;22;20010;-89
2021/04/20 05:55:24;;;;;;;35.42;25.95;;;;;;;6.34;82.17;95822.16;6347654;22;20075;-91
2021/04/20 05:57:52;;;;;;;34.92;25.67;;;;;;;6.40;82.33;95820.41;6375757;22;20010;-89
2021/04/20 06:00:20;;;;;;;37.08;27.52;;;;;;;6.19;82.07;95768.00;6375620;22;20025;-90
2021/04/20 06:02:47;;;;;;;34.08;24.95;;;;;;;6.62;81.78;95825.75;6346152;22;20014;-91
2021/04/20 06:05:15;;;;;;;35.38;25.83;;;;;;;6.78;81.18;95836.28;6348377;22;20002;-91
2021/04/20 06:07:46;;;;;;;34.65;23.98;;;;;;;6.49;80.58;95769.16;6348234;22;20089;-91
2021/04/20 06:10:14;;;;;;;32.83;23.92;;;;;;;6.52;78.93;95758.25;6348360;22;20381;-91
2021/04/20 06:12:41;;;;;;;33.42;23.38;;;;;;;6.56;78.78;95742.66;6347908;22;20003;-91
2021/04/20 06:15:08;;;;;;;38.88;24.30;;;;;;;7.00;78.46;95784.91;6348101;22;20370;-91
2021/04/20 06:17:36;;;;;;;31.45;23.52;;;;;;;7.00;78.46;95784.91;6348141;22;20017;-86
2021/04/20 06:20:04;;;;;;;31.60;22.73;;;;;;;7.19;77.68;95762.13;6348036;22;20430;-91
2021/04/20 06:22:30;;;;;;;32.33;23.00;;;;;;;7.19;77.68;95762.13;6348274;22;20397;-91
2021/04/20 06:24:58;;;;;;;31.60;23.77;;;;;;;7.19;77.68;95762.13;6347986;22;20006;-91
2021/04/20 06:27:24;;;;;;;32.15;22.80;;;;;;;-145.61;100.00;68426.72;6348040;22;20005;-92
2021/04/20 06:29:49;;;;;;;32.60;23.95;;;;;;;7.19;77.68;95762.13;6348137;22;20006;-92
2021/04/20 06:32:15;;;;;;;33.85;22.40;;;;;;;7.19;77.68;95762.13;6347996;22;20002;-91
2021/04/20 06:34:41;;;;;;;36.30;23.02;;;;;;;7.19;77.68;95762.13;6348144;22;20090;-89
2021/04/20 06:37:08;;;;;;;24.73;18.35;;;;;;;7.19;77.68;95762.13;6348111;22;20009;-91
2021/04/20 06:39:34;;;;;;;28.35;19.58;;;;;;;7.19;77.68;95762.13;6347922;22;20017;-91
2021/04/20 06:42:02;;;;;;;25.45;18.42;;;;;;;7.19;77.68;95762.13;6340745;22;19994;-91
2021/04/20 06:44:48;;;;;;;25.13;18.73;;;;;;;8.17;72.43;95816.28;6347137;22;20012;-90
2021/04/20 06:47:20;;;;;;;26.50;18.77;;;;;;;8.00;72.46;95775.31;6347014;22;20057;-90
2021/04/20 06:49:52;;;;;;;32.60;19.95;;;;;;;8.00;72.46;95775.31;6346949;22;20002;-90
2021/04/20 06:56:03;;;;;;;32.25;20.45;;;;;;;8.42;72.92;95818.66;6373367;22;20025;-90
2021/04/20 06:58:32;;;;;;;30.02;20.98;;;;;;;8.42;72.92;95818.66;6347101;22;20022;-90
2021/04/20 07:01:01;;;;;;;31.67;20.35;;;;;;;8.42;72.92;95818.66;6374413;22;20063;-89
2021/04/20 07:03:40;;;;;;;30.73;19.95;;;;;;;8.42;72.92;95818.66;6346617;22;20031;-90
2021/04/20 07:06:12;;;;;;;36.00;21.00;;;;;;;8.42;72.92;95818.66;6347123;22;20002;-89
2021/04/20 07:09:07;;;;;;;35.58;21.27;;;;;;;8.46;72.32;95821.94;6346914;22;20005;-90
2021/04/20 07:12:10;;;;;;;29.58;18.63;;;;;;;8.38;71.10;95826.94;6373590;22;20006;-91
2021/04/20 07:14:47;;;;;;;30.40;19.00;;;;;;;8.29;73.97;95801.81;6346507;22;20089;-92
2021/04/20 07:17:25;;;;;;;32.63;21.13;;;;;;;8.48;71.94;95822.25;6347018;22;20366;-91
2021/04/20 07:20:19;;;;;;;36.13;19.42;;;;;;;8.48;71.94;95822.25;6346747;22;20006;-91
2021/04/20 07:23:18;;;;;;;31.95;19.63;;;;;;;8.65;71.62;95828.78;6346761;22;20014;-90
2021/04/20 07:26:07;;;;;;;29.60;20.88;;;;;;;8.34;72.58;95768.75;6347829;22;20075;-91
2021/04/20 07:28:49;;;;;;;27.92;19.77;;;;;;;8.47;72.41;95777.44;6349362;22;20081;-91
2021/04/20 07:31:21;;;;;;;25.92;18.45;;;;;;;8.42;71.73;95758.38;6347484;22;20401;-90
2021/04/20 07:34:20;;;;;;;28.23;18.38;;;;;;;9.02;71.26;95827.88;6349666;22;20006;-91
2021/04/20 07:36:56;;;;;;;31.95;19.00;;;;;;;8.97;71.64;95821.13;6349694;22;20003;-90
2021/04/20 07:39:23;;;;;;;39.55;19.77;;;;;;;8.69;69.63;95769.09;6349718;22;20038;-90
2021/04/20 07:41:51;;;;;;;32.08;19.30;;;;;;;9.16;70.73;95835.31;6349445;22;20006;-90
2021/04/20 07:44:32;;;;;;;34.00;18.33;;;;;;;9.27;70.34;95832.88;6349570;22;20071;-90
2021/04/20 07:47:01;;;;;;;32.05;19.15;;;;;;;8.92;69.19;95783.84;6377073;22;20351;-90
2021/04/20 07:49:39;;;;;;;26.45;18.42;;;;;;;8.86;68.63;95758.59;6349532;22;20051;-91
2021/04/20 07:52:23;;;;;;;34.97;16.90;;;;;;;9.47;67.59;95836.94;6349467;22;20039;-90
2021/04/20 07:55:06;;;;;;;27.70;16.60;;;;;;;9.56;66.35;95836.91;6349227;22;20089;-90
2021/04/20 07:57:39;;;;;;;24.85;17.13;;;;;;;9.30;65.79;95814.94;6377047;22;20423;-91
2021/04/20 08:00:16;;;;;;;19.50;14.52;;;;;;;9.47;64.42;95834.22;6348755;22;20002;-91
2021/04/20 08:03:07;;;;;;;18.65;12.60;;;;;;;9.48;64.62;95827.59;6343463;22;20063;-92
2021/04/20 08:05:39;;;;;;;14.55;11.43;;;;;;;9.52;65.45;95830.88;6348258;22;20108;-91
2021/04/20 08:08:11;;;;;;;19.33;10.30;;;;;;;9.50;66.44;95812.38;6349149;22;20006;-92
2021/04/20 08:11:03;;;;;;;12.10;8.00;;;;;;;9.37;65.28;95809.16;6349077;22;20004;-92
2021/04/20 08:13:37;;;;;;;19.80;8.45;;;;;;;9.36;66.14;95800.28;6349753;22;20013;-90
2021/04/20 08:16:11;;;;;;;10.20;7.72;;;;;;;9.30;65.53;95804.09;6349152;22;20002;-88
2021/04/20 08:18:49;;;;;;;13.50;8.25;;;;;;;9.35;65.19;95801.50;6349085;22;20032;-88
2021/04/20 08:21:14;;;;;;;13.07;8.70;;;;;;;9.40;66.15;95827.97;6376654;22;20003;-88
2021/04/20 08:23:46;;;;;;;16.00;8.98;;;;;;;9.62;66.61;95843.16;6349219;22;20014;-89
2021/04/20 08:26:22;;;;;;;9.43;7.75;;;;;;;9.60;64.39;95840.94;6376329;22;20374;-88
2021/04/20 08:29:02;;;;;;;18.40;8.80;;;;;;;9.59;64.56;95841.41;6348783;22;20010;-88
2021/04/20 08:31:35;;;;;;;10.25;7.20;;;;;;;9.50;64.54;95841.47;6349014;22;20010;-88
2021/04/20 08:34:35;;;;;;;10.65;7.50;;;;;;;9.55;63.28;95844.28;6342695;22;20305;-88
2021/04/20 08:37:00;;;;;;;11.52;7.32;;;;;;;9.41;64.19;95848.41;6348171;22;20375;-88
2021/04/20 08:39:57;;;;;;;17.48;8.90;;;;;;;9.45;65.69;95835.44;6348051;22;20011;-88
2021/04/20 08:42:35;;;;;;;20.35;9.20;;;;;;;9.38;65.52;95807.97;6347440;22;20002;-87
2021/04/20 08:45:10;;;;;;;9.13;7.05;;;;;;;9.12;62.87;95791.41;6347034;22;20009;-88
2021/04/20 08:47:55;;;;;;;13.35;7.70;;;;;;;9.58;64.30;95846.03;6346757;22;20002;-88
2021/04/20 08:50:26;;;;;;;17.50;8.10;;;;;;;9.63;64.38;95842.69;6345587;22;20003;-87
2021/04/20 08:53:20;;;;;;;18.45;8.30;;;;;;;9.65;64.69;95848.44;6347772;22;20304;-87
2021/04/20 08:55:52;;;;;;;9.43;6.55;;;;;;;9.25;63.39;95812.84;6375634;22;20020;-88
2021/04/20 08:58:33;;;;;;;10.15;7.57;;;;;;;9.19;64.60;95823.56;6348205;22;20002;-88
2021/04/20 09:01:07;;;;;;;;;;;;;;;9.32;64.57;95845.78;6348936;22;20418;-88
2021/04/20 09:03:51;;;;;;;9.40;6.50;;;;;;;8.90;64.59;95810.66;6376119;22;19909;-87
2021/04/20 09:06:42;;;;;;;9.98;6.57;;;;;;;8.98;65.52;95838.88;6376797;22;20073;-89
2021/04/20 09:09:12;;;;;;;9.02;7.28;;;;;;;8.50;66.45;95810.97;6350598;22;20424;-87
2021/04/20 09:11:45;;;;;;;9.70;7.05;;;;;;;8.50;67.46;95810.97;6351194;22;20021;-88
2021/04/20 09:14:18;;;;;;;8.30;7.03;;;;;;;8.25;67.71;95804.69;6348759;22;20010;-87
2021/04/20 09:16:53;;;;;;;9.13;7.40;;;;;;;8.52;68.87;95846.44;6348469;22;20367;-88
2021/04/20 09:19:36;;;;;;;10.82;7.40;;;;;;;8.60;68.95;95844.91;6348483;22;20063;-88
2021/04/20 09:22:08;;;;;;;7.93;6.68;;;;;;;8.61;69.45;95849.13;6348727;22;19998;-87
2021/04/20 09:25:04;;;;;;;7.50;6.43;;;;;;;8.34;68.68;95818.19;6370139;22;20024;-88
2021/04/20 09:28:00;;;;;;;7.72;6.65;;;;;;;8.47;69.68;95847.03;6349831;22;20010;-89
2021/04/20 09:30:29;;;;;;;9.18;7.20;;;;;;;8.28;69.15;95825.41;6347513;22;20057;-88
2021/04/20 09:33:18;;;;;;;8.10;6.43;;;;;;;8.52;69.39;95839.09;6341584;22;20042;-88
2021/04/20 09:35:45;;;;;;;8.48;6.85;;;;;;;8.09;69.06;95777.97;6371648;22;20010;-88
2021/04/20 09:38:12;;;;;;;7.15;6.30;;;;;;;8.47;69.50;95833.50;6371496;22;20423;-88
2021/04/20 09:40:39;;;;;;;7.75;6.80;;;;;;;8.32;69.07;95819.88;6347218;22;20415;-88
2021/04/20 09:43:23;;;;;;;11.23;7.80;;;;;;;8.45;70.37;95833.97;6375356;22;19998;-88
2021/04/20 09:45:57;;;;;;;8.32;7.45;;;;;;;8.38;71.19;95840.47;6345484;22;20010;-88
2021/04/20 09:48:25;;;;;;;9.60;7.97;;;;;;;8.47;71.61;95839.69;6349472;22;20002;-88
2021/04/20 09:51:21;;;;;;;8.88;7.93;;;;;;;8.38;72.53;95840.47;6349958;22;20015;-88
2021/04/20 09:53:55;;;;;;;9.95;8.43;;;;;;;8.49;71.64;95834.56;6374996;22;20023;-88
2021/04/20 09:56:49;;;;;;;10.70;8.55;;;;;;;8.68;70.92;95837.19;6347533;22;20023;-88
2021/04/20 09:59:40;;;;;;;10.48;8.20;;;;;;;8.63;70.32;95814.97;6373671;22;20127;-88
2021/04/20 10:02:27;;;;;;;11.27;7.85;;;;;;;8.49;70.63;95802.09;6347991;22;20372;-88
2021/04/20 10:05:31;;;;;;;10.88;8.27;;;;;;;8.65;69.52;95826.09;6374474;22;20002;-88
2021/04/20 10:08:17;;;;;;;13.52;8.95;;;;;;;8.65;69.58;95796.31;6347749;22;20002;-88
2021/04/20 10:11:03;;;;;;;16.95;11.48;;;;;;;9.16;69.14;95821.78;6347970;22;20267;-88
2021/04/20 10:13:42;;;;;;;16.98;11.65;;;;;;;9.19;67.75;95821.63;6375407;22;20027;-88
2021/04/20 10:16:16;;;;;;;18.98;10.93;;;;;;;9.41;65.42;95815.16;6347395;22;20082;-89
2021/04/20 10:19:05;;;;;;;12.40;8.70;;;;;;;9.82;65.46;95820.88;6375428;22;20007;-89
2021/04/20 10:22:20;;;;;;;14.43;9.40;;;;;;;9.74;63.38;95782.50;6375248;22;20077;-88
2021/04/20 10:25:20;;;;;;;9.35;7.40;;;;;;;10.52;60.85;95821.13;6375447;22;20240;-87
2021/04/20 10:27:50;;;;;;;8.82;7.30;;;;;;;11.02;61.30;95812.97;6375997;22;20028;-88
2021/04/20 10:30:20;;;;;;;;;;;;;;;11.42;57.90;95809.53;6348437;22;19998;-88
2021/04/20 10:32:56;;;;;;;8.73;6.65;;;;;;;11.68;56.99;95801.44;6351429;22;20250;-88
2021/04/20 10:35:34;;;;;;;9.38;6.65;;;;;;;12.09;57.37;95806.06;6377140;22;20029;-88
2021/04/20 10:38:08;;;;;;;9.18;6.60;;;;;;;12.32;57.15;95783.28;6375255;22;20359;-88
2021/04/20 10:40:35;;;;;;;9.65;7.38;;;;;;;12.51;56.98;95784.41;6375395;22;20002;-87
2021/04/20 10:43:06;;;;;;;10.52;7.15;;;;;;;12.74;55.96;95798.97;6347270;22;20018;-88
2021/04/20 10:45:32;;;;;;;6.80;6.10;;;;;;;12.56;52.59;95772.06;6375328;22;20002;-88
2021/04/20 10:47:59;;;;;;;11.27;7.78;;;;;;;13.10;54.62;95759.31;6347111;22;20006;-88
2021/04/20 10:50:27;;;;;;;10.25;6.50;;;;;;;13.41;58.81;95760.44;6377075;22;20013;-88
2021/04/20 10:53:11;;;;;;;11.88;6.95;;;;;;;13.96;57.22;95756.38;6347666;22;19998;-88
2021/04/20 10:55:40;;;;;;;7.35;6.20;;;;;;;14.33;51.49;95780.75;6347655;22;20274;-88
2021/04/20 10:58:08;;;;;;;8.35;6.90;;;;;;;13.56;51.25;95728.25;6378113;22;19998;-88
2021/04/20 11:00:35;;;;;;;9.95;7.20;;;;;;;13.61;51.42;95771.16;6349326;22;20264;-87
2021/04/20 11:03:01;;;;;;;7.93;6.57;;;;;;;13.09;50.51;95774.16;6347554;22;20005;-87
2021/04/20 11:05:29;;;;;;;8.27;6.22;;;;;;;12.75;51.27;95737.78;6375056;22;20072;-87
2021/04/20 11:07:57;;;;;;;9.63;6.93;;;;;;;13.02;52.21;95768.41;6346940;22;20595;-88
2021/04/20 11:10:29;;;;;;;10.45;7.15;;;;;;;12.75;54.82;95731.59;6344020;22;20034;-88
2021/04/20 11:12:56;;;;;;;7.28;6.15;;;;;;;12.54;49.23;95750.03;6347584;22;20085;-88
2021/04/20 11:15:25;;;;;;;7.95;6.30;;;;;;;12.55;49.68;95755.00;6347571;22;19998;-89
2021/04/20 11:17:57;;;;;;;8.20;6.65;;;;;;;13.22;49.25;95751.94;6347194;22;19994;-88
2021/04/20 11:20:27;;;;;;;7.00;5.90;;;;;;;13.50;50.45;95716.59;6374800;22;20002;-89
2021/04/20 11:23:08;;;;;;;;;;;;;;;14.17;50.30;95756.91;6375681;22;20255;-89
2021/04/20 11:25:55;;;;;;;6.50;4.78;;;;;;;14.59;47.77;95755.16;6344777;22;19955;-89
2021/04/20 11:28:41;;;;;;;6.55;4.75;;;;;;;13.84;45.80;95752.88;6376588;22;20077;-90
2021/04/20 11:31:13;;;;;;;10.18;5.90;;;;;;;14.03;48.22;95747.69;6345728;22;20002;-89
2021/04/20 11:33:49;;;;;;;7.53;4.88;;;;;;;13.93;48.05;95749.16;6374974;22;20002;-90
2021/04/20 11:36:41;;;;;;;6.35;5.60;;;;;;;13.67;45.29;95732.25;6347716;22;20010;-88
2021/04/20 11:39:10;;;;;;;7.40;5.55;;;;;;;13.73;49.36;95713.91;6375065;22;20051;-89
2021/04/20 11:41:45;;;;;;;6.25;5.07;;;;;;;13.88;48.58;95739.00;6346091;22;20267;-90
2021/04/20 11:44:13;;;;;;;8.05;5.32;;;;;;;13.87;48.08;95716.41;6341319;22;20078;-89
2021/04/20 11:46:44;;;;;;;9.18;5.60;;;;;;;13.64;49.61;95698.53;6347383;22;20002;-90
2021/04/20 11:49:23;;;;;;;10.25;5.20;;;;;;;13.81;47.74;95731.28;6347507;22;20382;-89
2021/04/20 11:51:50;;;;;;;10.60;5.45;;;;;;;13.92;49.10;95734.03;6347319;22;20005;-90
2021/04/20 11:54:25;;;;;;;9.00;5.22;;;;;;;13.71;46.98;95702.75;6347255;22;20006;-89
2021/04/20 11:56:57;;;;;;;7.72;5.03;;;;;;;13.75;46.62;95728.56;6311510;22;20413;-89
2021/04/20 11:59:23;;;;;;;8.85;4.95;;;;;;;13.26;45.11;95672.63;6315769;22;20093;-89